Weather History for Pecos, TX

Change the Weather History Date:

Friday, October 15, 2010

  Actual Average Record
Temperature  
Mean Temperature 66 °F -  
Max Temperature 86 °F 84 °F 103 °F (1951)
Min Temperature 47 °F 49 °F 36 °F (1914)
Cooling Degree Days 2    
Growing Degree Days 16 (Base 50)    
Moisture  
Dew Point 39 °F    
Average Humidity 42    
Maximum Humidity 71    
Minimum Humidity 16    
Precipitation  
Precipitation 0.00 in - - ()
Sea Level Pressure  
Sea Level Pressure 30.16 in    
Wind  
Wind Speed 4 mph (ESE)    
Max Wind Speed 9 mph    
Max Gust Speed -    
Visibility 10 miles    
Events      
Averages and records for this station are not official NWS values.
T = Trace of Precipitation, MM = Missing Value Source: NWS Daily Summary

Daily Weather History Graph

Daily Weather History Graph

Search for Another Location

Airport:

Trip Planner

Search our weather history database for the weather conditions in past years. The results will help you decide how hot, cold, wet, or windy it might be!

Date:

Astronomy

Oct. 15, 2010 Rise Set
Actual Time 7:57 AM CDT 7:22 PM CDT
Civil Twilight 7:32 AM CDT 7:46 PM CDT
Nautical Twilight 7:04 AM CDT 8:14 PM CDT
Astronomical Twilight 6:36 AM CDT 8:42 PM CDT
Moon 3:20 PM CDT (10/15) 1:20 AM CDT (10/15)
Length of Visible Light 12h 13m
Length of Day
11h 25m
First Quarter, 58% of the Moon is Illuminated
Oct 15
First Quarter
Oct 22
Full
Oct 30
Last Quarter
Nov 5
New
Nov 13
First Quarter

Hourly Weather History & Observations

Time (CDT) Temp. Dew Point Humidity Pressure Visibility Wind Dir Wind Speed Gust Speed Precip Events Conditions
12:05 AM 57.9 °F 38.5 °F 48% 30.22 in 10.0 mi SSW 6.9 mph - N/A   Clear
12:45 AM 57.6 °F 39.9 °F 52% 30.20 in 10.0 mi South 8.1 mph - N/A   Clear
1:05 AM 57.9 °F 39.2 °F 50% 30.20 in 10.0 mi SSW 6.9 mph - N/A   Clear
1:25 AM 57.2 °F 39.6 °F 52% 30.20 in 10.0 mi South 6.9 mph - N/A   Clear
1:45 AM 58.1 °F 40.3 °F 52% 30.19 in 10.0 mi South 6.9 mph - N/A   Clear
2:05 AM 56.8 °F 39.6 °F 52% 30.20 in 10.0 mi SSW 4.6 mph - N/A   Clear
2:25 AM 55.2 °F 39.2 °F 55% 30.20 in 10.0 mi Calm Calm - N/A   Clear
2:45 AM 55.0 °F 39.2 °F 55% 30.20 in 10.0 mi SW 4.6 mph - N/A   Clear
3:05 AM 52.2 °F 38.5 °F 60% 30.19 in 10.0 mi SW 4.6 mph - N/A   Clear
3:25 AM 51.8 °F 37.9 °F 59% 30.19 in 10.0 mi Calm Calm - N/A   Clear
3:45 AM 52.7 °F 37.9 °F 57% 30.19 in 10.0 mi Calm Calm - N/A   Clear
4:05 AM 52.9 °F 37.9 °F 57% 30.19 in 10.0 mi Calm Calm - N/A   Clear
4:25 AM 52.0 °F 37.6 °F 58% 30.18 in 10.0 mi WNW 3.5 mph - N/A   Clear
4:45 AM 51.1 °F 38.1 °F 61% 30.18 in 10.0 mi WNW 3.5 mph - N/A   Clear
5:05 AM 49.1 °F 37.8 °F 65% 30.18 in 10.0 mi NW 3.5 mph - N/A   Clear
5:25 AM 50.0 °F 38.7 °F 65% 30.18 in 10.0 mi NNW 3.5 mph - N/A   Clear
5:45 AM 50.2 °F 38.8 °F 65% 30.19 in 10.0 mi Calm Calm - N/A   Clear
6:05 AM 51.3 °F 39.2 °F 63% 30.18 in 10.0 mi ENE 3.5 mph - N/A   Clear
6:25 AM 50.0 °F 38.7 °F 65% 30.19 in 10.0 mi Calm Calm - N/A   Clear
6:45 AM 47.8 °F 37.8 °F 68% 30.19 in 10.0 mi West 3.5 mph - N/A   Clear
7:05 AM 47.5 °F 37.6 °F 69% 30.19 in 10.0 mi WNW 3.5 mph - N/A   Clear
7:45 AM 47.1 °F 38.3 °F 71% 30.20 in 10.0 mi WNW 4.6 mph - N/A   Clear
8:05 AM 47.3 °F 38.5 °F 71% 30.20 in 10.0 mi NW 3.5 mph - N/A   Clear
8:25 AM 48.9 °F 39.4 °F 70% 30.20 in 10.0 mi NNW 3.5 mph - N/A   Clear
8:45 AM 51.1 °F 39.7 °F 65% 30.21 in 10.0 mi Calm Calm - N/A   Clear
9:05 AM 54.0 °F 40.6 °F 61% 30.22 in 10.0 mi Calm Calm - N/A   Clear
9:25 AM 56.3 °F 41.4 °F 57% 30.22 in 10.0 mi Calm Calm - N/A   Clear
9:45 AM 58.1 °F 41.5 °F 54% 30.23 in 10.0 mi Calm Calm - N/A   Clear
10:05 AM 60.3 °F 42.3 °F 51% 30.23 in 10.0 mi Calm Calm - N/A   Clear
10:25 AM 62.4 °F 42.1 °F 47% 30.23 in 10.0 mi Calm Calm - N/A   Clear
10:45 AM 65.3 °F 42.6 °F 44% 30.23 in 10.0 mi Calm Calm - N/A   Clear
11:05 AM 67.1 °F 42.1 °F 40% 30.22 in 10.0 mi Calm Calm - N/A   Clear
11:25 AM 70.3 °F 42.4 °F 36% 30.22 in 10.0 mi Calm Calm - N/A   Clear
11:45 AM 72.7 °F 42.1 °F 33% 30.21 in 10.0 mi Calm Calm - N/A   Clear
12:05 PM 74.1 °F 42.8 °F 32% 30.20 in 10.0 mi Calm Calm - N/A   Clear
12:25 PM 76.6 °F 43.7 °F 31% 30.20 in 10.0 mi Calm Calm - N/A   Clear
1:05 PM 81.1 °F 41.9 °F 25% 30.18 in 10.0 mi Calm Calm - N/A   Clear
1:25 PM 81.3 °F 40.5 °F 23% 30.17 in 10.0 mi SE 5.8 mph - N/A   Clear
1:45 PM 82.2 °F 41.4 °F 23% 30.16 in 10.0 mi Calm Calm - N/A   Clear
2:25 PM 83.7 °F 39.4 °F 21% 30.13 in 10.0 mi SE 4.6 mph - N/A   Clear
2:45 PM 85.3 °F 38.5 °F 19% 30.12 in 10.0 mi Calm Calm - N/A   Clear
3:05 PM 85.3 °F 36.0 °F 17% 30.10 in 10.0 mi ENE 4.6 mph - N/A   Clear
3:25 PM 86.0 °F 37.4 °F 18% 30.09 in 10.0 mi NE 5.8 mph - N/A   Clear
3:45 PM 86.7 °F 36.0 °F 16% 30.09 in 10.0 mi Calm Calm - N/A   Clear
4:05 PM 85.3 °F 34.7 °F 16% 30.09 in 10.0 mi SSE 6.9 mph - N/A   Clear
4:25 PM 84.2 °F 35.2 °F 17% 30.08 in 10.0 mi South 3.5 mph - N/A   Clear
4:45 PM 83.7 °F 34.7 °F 17% 30.07 in 10.0 mi Calm Calm - N/A   Clear
5:25 PM 84.7 °F 34.9 °F 17% 30.07 in 10.0 mi SE 5.8 mph - N/A   Clear
5:45 PM 84.2 °F 35.6 °F 18% 30.07 in 10.0 mi ENE 5.8 mph - N/A   Clear
6:05 PM 85.6 °F 35.1 °F 16% 30.06 in 10.0 mi East 5.8 mph - N/A   Clear
6:25 PM 84.4 °F 35.2 °F 17% 30.06 in 10.0 mi East 8.1 mph - N/A   Clear
6:45 PM 82.0 °F 36.3 °F 19% 30.06 in 10.0 mi East 5.8 mph - N/A   Clear
7:05 PM 80.4 °F 36.9 °F 21% 30.06 in 10.0 mi East 5.8 mph - N/A   Clear
7:25 PM 76.6 °F 36.9 °F 24% 30.07 in 10.0 mi East 6.9 mph - N/A   Clear
7:45 PM 74.7 °F 36.5 °F 25% 30.07 in 10.0 mi East 5.8 mph - N/A   Clear
8:05 PM 72.9 °F 36.9 °F 27% 30.07 in 10.0 mi ENE 6.9 mph - N/A   Clear
8:25 PM 71.8 °F 36.9 °F 28% 30.07 in 10.0 mi East 8.1 mph - N/A   Clear
8:45 PM 70.2 °F 36.7 °F 29% 30.07 in 10.0 mi ENE 6.9 mph - N/A   Clear
9:05 PM 68.4 °F 36.9 °F 31% 30.08 in 10.0 mi ENE 6.9 mph - N/A   Clear
9:25 PM 66.2 °F 36.1 °F 33% 30.09 in 10.0 mi East 9.2 mph - N/A   Clear
9:45 PM 66.6 °F 36.0 °F 32% 30.09 in 10.0 mi East 8.1 mph - N/A   Clear
10:05 PM 64.9 °F 35.6 °F 34% 30.10 in 10.0 mi ESE 8.1 mph - N/A   Clear
10:25 PM 64.6 °F 36.3 °F 35% 30.10 in 10.0 mi ESE 8.1 mph - N/A   Clear
10:45 PM 63.3 °F 36.5 °F 37% 30.10 in 10.0 mi ESE 6.9 mph - N/A   Clear
11:05 PM 61.5 °F 36.7 °F 40% 30.10 in 10.0 mi Calm Calm - N/A   Clear
11:25 PM 61.7 °F 36.7 °F 39% 30.11 in 10.0 mi Calm Calm - N/A   Clear
11:45 PM 61.7 °F 36.5 °F 39% 30.11 in 10.0 mi Calm Calm - N/A   Clear